Ochopee, FL (34141)

2:32 PM EDT on March 27, 2017 (GMT -0400)
Port of the Islands | | Change Station

Elev 0 ft 25.95 °N, 81.51 °W | Updated 4 seconds ago

Clear
Clear
82.3 °F
Feels Like 82 °F
N
4.0
Wind Variable Wind from NNW

Today
High -- | Low -- °F
--% Chance of Precip.
Yesterday
High -- | Low -- °F
Precip. -- in
Pressure 30.06 in
Visibility 10.0 miles
Clouds Scattered Clouds 5500 ft
Heat Index 82 °F
Dew Point 58 °F
Humidity 45%
Rainfall 0.00 in
Snow Depth Not available.
7:21 AM 7:39 PM
Waning Crescent, 0% visible
METAR KAPF 271753Z 07006KT 10SM SCT055 28/14 A3006 RMK AO2 SLP179 T02780139 10283 20172 58013 $
Pressure 30.06 in
Visibility 10.0 miles
Clouds Scattered Clouds 5500 ft
Heat Index 82 °F
Dew Point 58 °F
Humidity 45%
Rainfall 0.00 in
Snow Depth Not available.
7:21 AM 7:39 PM
Waning Crescent, 0% visible
METAR KAPF 271753Z 07006KT 10SM SCT055 28/14 A3006 RMK AO2 SLP179 T02780139 10283 20172 58013 $

Get Severe Weather Alerts

Thanks for signing up!

Be on the lookout for a verification email in your inbox.

You'll start receiving the daily forecast at 8 AM.

×

10-Day Weather Forecast

Almanac

Astronomy

Mar. 27, 2017 Rise Set
Actual Time
Civil Twilight
Nautical Twilight
Astronomical Twilight
Moon
Length of Visible Light
Length of Day
Tomorrow will be .
, % of the Moon is Illuminated

Today's Extremes

State Highs State Lows

Community

WunderPhotos

Upload Photos

1,962,540 photos uploaded!

WunderBlog® & News

Nearby

Air Quality

  Air Quality AQ Index Pollutant
Not available.

Snow Depth

Station Depth Elevation

Earthquake Activity

City Distance Mag. Time & Date
Minimum magnitude displayed is 2.5.

Earthquake Activity

City Distance Mag. Time & Date
Minimum magnitude displayed is 2.5.

Coastal Water Temperatures

Place Temperature

Stations

Nearby Weather Stations

Station Location Temp. Windchill Dew Point Humidity Wind Precip. Elev Updated Type
                   

Watches & Warnings

There are currently no watches in effect.